Lowman, New York
Current Conditions -  °F | °C
As of 8:53 AM on Thursday 27 Nov 2014 (Local Time) from KELM Reporting Station
Light Snow Light Snow  
Wind Chill: 25°   Ceiling: 4900
Heat Index: 30°   Visibility: 4mi
Dew Point: 26°   Wind: 5mph
Humidity: 85%   Direction: 230°SW
Pressure: 30.02"   Gusts: NA
Location:  42.03°N, 76.72°W
Report Text: KELM 271353Z 23004KT 4SM -SN BR FEW018 OVC049 M01/M03 A3002 RMK AO2 SNB1257 SLP176 P0001 T10111033
Loading
Personal Weather Stations






























Interactive Weather Map New forecast layout! Learn more

10-Day Weather Forecast

Advertisements
Track Severe Weather on mobile